Time;durP1;ratioP1;P1;durP2;ratioP2;P2;SDS_P1;SDS_P2;PMS_P1;PMS_P2;Temp;Humidity;BMP_temperature;BMP_pressure;BME280_temperature;BME280_humidity;BME280_pressure;Samples;Min_cycle;Max_cycle;Signal;HPM_P1;HPM_P2
2020/12/01 00:01:56;;;;;;;59.35;29.58;;;;;;;4.45;100.00;100766.41;4992238;28;20409;-85
2020/12/01 00:04:22;;;;;;;62.70;30.15;;;;;;;4.45;100.00;100763.75;4993079;28;20045;-86
2020/12/01 00:06:47;;;;;;;62.85;31.90;;;;;;;4.46;100.00;100760.09;4994555;28;20057;-86
2020/12/01 00:09:14;;;;;;;68.55;32.55;;;;;;;4.47;100.00;100751.19;4994141;28;20046;-86
2020/12/01 00:11:39;;;;;;;60.88;26.40;;;;;;;4.50;100.00;100756.25;4989642;28;20581;-85
2020/12/01 00:14:05;;;;;;;64.10;32.78;;;;;;;4.52;100.00;100754.31;4988418;28;20148;-85
2020/12/01 00:16:31;;;;;;;58.72;28.55;;;;;;;4.53;100.00;100742.72;4984514;28;20042;-85
2020/12/01 00:18:56;;;;;;;67.45;33.83;;;;;;;4.56;100.00;100747.75;4983353;28;20424;-86
2020/12/01 00:21:22;;;;;;;66.15;32.97;;;;;;;4.57;100.00;100749.44;4991241;28;20049;-86
2020/12/01 00:23:47;;;;;;;61.95;30.92;;;;;;;4.58;100.00;100760.94;4991180;28;20452;-85
2020/12/01 00:26:18;;;;;;;59.50;27.90;;;;;;;4.58;100.00;100761.78;4992056;28;20481;-86
2020/12/01 00:28:47;;;;;;;63.35;30.33;;;;;;;4.59;100.00;100755.47;4967286;28;20072;-86
2020/12/01 00:31:15;;;;;;;56.80;27.88;;;;;;;4.61;100.00;100758.88;4992519;28;20038;-86
2020/12/01 00:33:40;;;;;;;62.35;30.55;;;;;;;4.63;100.00;100758.72;4986615;28;20677;-86
2020/12/01 00:36:06;;;;;;;63.35;33.15;;;;;;;4.64;100.00;100761.28;4974742;28;20059;-86
2020/12/01 00:38:32;;;;;;;67.78;31.77;;;;;;;4.69;100.00;100759.09;4974816;28;20038;-86
2020/12/01 00:40:57;;;;;;;66.32;33.25;;;;;;;4.71;100.00;100762.44;4993883;28;20038;-86
2020/12/01 00:43:23;;;;;;;65.10;33.40;;;;;;;4.72;100.00;100758.00;4975561;28;20055;-86
2020/12/01 00:45:49;;;;;;;66.90;33.97;;;;;;;4.74;100.00;100772.81;4989915;28;20078;-86
2020/12/01 00:48:15;;;;;;;64.55;31.35;;;;;;;4.75;100.00;100769.22;4993323;28;20070;-86
2020/12/01 00:50:41;;;;;;;67.20;32.40;;;;;;;4.77;100.00;100769.06;4977154;28;20100;-86
2020/12/01 00:53:07;;;;;;;65.45;31.10;;;;;;;4.80;100.00;100770.63;4992974;28;20043;-86
2020/12/01 00:55:33;;;;;;;64.60;31.20;;;;;;;4.81;100.00;100767.00;4991229;28;20096;-86
2020/12/01 00:57:58;;;;;;;68.25;38.10;;;;;;;4.81;100.00;100761.69;4966906;28;20030;-86
2020/12/01 01:00:27;;;;;;;66.40;31.98;;;;;;;4.80;100.00;100755.50;4998469;28;20043;-84
2020/12/01 01:02:52;;;;;;;70.97;36.33;;;;;;;4.82;100.00;100758.91;5009398;28;20035;-85
2020/12/01 01:05:18;;;;;;;68.53;35.60;;;;;;;4.82;100.00;100760.72;5010253;28;20225;-85
2020/12/01 01:07:44;;;;;;;67.45;34.53;;;;;;;4.83;100.00;100741.13;5010510;28;20038;-85
2020/12/01 01:10:20;;;;;;;70.47;34.00;;;;;;;4.85;100.00;100749.81;4992205;28;20038;-85
2020/12/01 01:12:46;;;;;;;67.85;36.83;;;;;;;4.86;100.00;100754.16;5027656;28;20043;-85
2020/12/01 01:15:13;;;;;;;68.55;38.83;;;;;;;4.86;100.00;100756.81;5008401;28;20058;-85
2020/12/01 01:17:38;;;;;;;65.65;30.92;;;;;;;4.90;100.00;100740.50;4984685;28;20039;-85
2020/12/01 01:20:06;;;;;;;64.40;31.25;;;;;;;4.92;100.00;100753.63;4989304;28;20057;-85
2020/12/01 01:22:32;;;;;;;67.32;30.98;;;;;;;4.93;100.00;100748.22;4989331;28;20066;-85
2020/12/01 01:24:57;;;;;;;60.22;30.63;;;;;;;4.94;100.00;100746.38;4983397;28;20132;-86
2020/12/01 01:27:23;;;;;;;63.53;33.20;;;;;;;4.93;100.00;100750.03;4971054;28;20045;-85
2020/12/01 01:29:48;;;;;;;66.28;32.40;;;;;;;4.93;100.00;100755.34;4991547;28;20035;-85
2020/12/01 01:32:14;;;;;;;65.00;32.70;;;;;;;4.94;100.00;100762.34;4990297;28;20097;-85
2020/12/01 01:34:39;;;;;;;71.82;36.75;;;;;;;4.92;100.00;100758.97;4972529;28;20045;-86
2020/12/01 01:37:05;;;;;;;68.88;34.38;;;;;;;4.92;100.00;100758.97;4988847;28;20038;-85
2020/12/01 01:39:30;;;;;;;64.00;32.22;;;;;;;4.92;100.00;100759.81;4969499;28;20046;-85
2020/12/01 01:41:56;;;;;;;65.90;32.47;;;;;;;4.93;100.00;100765.97;4983378;28;20043;-85
2020/12/01 01:44:28;;;;;;;70.43;37.65;;;;;;;4.93;100.00;100761.50;4990670;28;20531;-85
2020/12/01 01:47:12;;;;;;;59.75;29.77;;;;;;;4.93;100.00;100761.50;4989996;28;20042;-85
2020/12/01 01:49:40;;;;;;;62.38;32.15;;;;;;;4.93;100.00;100773.97;5004876;28;20050;-85
2020/12/01 01:52:24;;;;;;;63.45;31.95;;;;;;;4.93;100.00;100763.31;4974991;28;20066;-86
2020/12/01 01:54:56;;;;;;;66.70;34.35;;;;;;;4.92;100.00;100758.97;4992046;28;20604;-86
2020/12/01 01:57:22;;;;;;;69.05;34.38;;;;;;;4.92;100.00;100765.16;4990927;28;20117;-85
2020/12/01 01:59:49;;;;;;;63.95;32.58;;;;;;;4.94;100.00;100765.84;4991521;28;20057;-86
2020/12/01 02:02:15;;;;;;;65.55;29.92;;;;;;;4.95;100.00;100764.06;4992758;28;20054;-85
2020/12/01 02:04:40;;;;;;;61.92;28.98;;;;;;;4.97;100.00;100767.41;4992710;28;20458;-85
2020/12/01 02:07:06;;;;;;;61.20;28.38;;;;;;;5.00;100.00;100771.63;4991358;28;20104;-85
2020/12/01 02:09:42;;;;;;;65.53;32.13;;;;;;;4.99;100.00;100765.47;4990319;28;20408;-85
2020/12/01 02:12:08;;;;;;;64.68;28.92;;;;;;;4.98;100.00;100766.44;4988381;28;20062;-85
2020/12/01 02:14:42;;;;;;;62.88;30.95;;;;;;;4.98;100.00;100758.47;4990044;28;20050;-85
2020/12/01 02:17:16;;;;;;;67.70;31.80;;;;;;;4.96;100.00;100761.25;4994215;28;20042;-85
2020/12/01 02:19:42;;;;;;;62.33;32.08;;;;;;;4.96;100.00;100761.25;4986942;28;20125;-85
2020/12/01 02:22:13;;;;;;;72.22;33.72;;;;;;;4.98;100.00;100753.16;4988107;28;20133;-85
2020/12/01 02:24:38;;;;;;;67.25;31.90;;;;;;;4.97;100.00;100762.09;4990999;28;20397;-85
2020/12/01 02:27:04;;;;;;;65.88;31.00;;;;;;;4.97;100.00;100756.75;4989239;28;20054;-86
2020/12/01 02:29:34;;;;;;;57.28;28.15;;;;;;;5.00;100.00;100756.50;5013512;28;20033;-85
2020/12/01 02:32:03;;;;;;;69.38;30.98;;;;;;;4.99;100.00;100746.84;5017099;28;20030;-83
2020/12/01 02:34:35;;;;;;;68.68;30.27;;;;;;;4.98;100.00;100754.00;4979520;28;20097;-85
2020/12/01 02:37:02;;;;;;;64.85;32.92;;;;;;;4.99;100.00;100757.50;4994696;28;20096;-86
2020/12/01 02:39:28;;;;;;;61.58;31.30;;;;;;;5.00;100.00;100750.34;4991892;28;20409;-85
2020/12/01 02:41:59;;;;;;;62.75;28.45;;;;;;;4.99;100.00;100757.50;4993649;28;20080;-86
2020/12/01 02:44:26;;;;;;;67.60;31.48;;;;;;;5.02;100.00;100756.38;4990031;28;20057;-86
2020/12/01 02:46:52;;;;;;;61.45;30.63;;;;;;;5.03;100.00;100755.41;4990889;28;20666;-85
2020/12/01 02:49:18;;;;;;;64.15;32.83;;;;;;;5.01;100.00;100752.91;4984496;28;20047;-85
2020/12/01 02:51:45;;;;;;;65.88;34.28;;;;;;;4.98;100.00;100750.50;4989433;28;20045;-86
2020/12/01 02:54:11;;;;;;;61.45;34.58;;;;;;;4.99;100.00;100749.50;4967437;28;20045;-86
2020/12/01 02:56:36;;;;;;;59.60;29.23;;;;;;;4.98;100.00;100748.66;4967360;28;20042;-85
2020/12/01 02:59:02;;;;;;;62.47;32.25;;;;;;;4.99;100.00;100752.16;4970388;28;20526;-86
2020/12/01 03:01:28;;;;;;;60.47;30.30;;;;;;;5.01;100.00;100763.53;4989837;28;20115;-85
2020/12/01 03:03:53;;;;;;;68.28;29.55;;;;;;;4.97;100.00;100762.09;4973927;28;20509;-86
2020/12/01 03:06:19;;;;;;;66.30;33.03;;;;;;;4.96;100.00;100760.41;4987035;28;20552;-85
2020/12/01 03:08:46;;;;;;;67.95;33.28;;;;;;;4.98;100.00;100758.47;4965992;28;21024;-85
2020/12/01 03:11:12;;;;;;;69.38;29.63;;;;;;;4.97;100.00;100762.09;4989229;28;20034;-86
2020/12/01 03:13:38;;;;;;;73.95;33.20;;;;;;;4.96;100.00;100757.75;4990599;28;20051;-85
2020/12/01 03:16:09;;;;;;;76.72;38.92;;;;;;;4.93;100.00;100755.34;4987658;28;20113;-86
2020/12/01 03:18:40;;;;;;;78.32;39.55;;;;;;;4.93;100.00;100755.34;4990580;28;20050;-85
2020/12/01 03:21:06;;;;;;;81.15;36.45;;;;;;;4.93;100.00;100758.84;5004666;28;20038;-85
2020/12/01 03:23:32;;;;;;;75.25;32.75;;;;;;;4.93;100.00;100752.69;4989681;28;20057;-85
2020/12/01 03:25:58;;;;;;;84.75;40.30;;;;;;;4.91;100.00;100752.81;4978576;28;20409;-86
2020/12/01 03:28:24;;;;;;;74.90;33.88;;;;;;;4.92;100.00;100750.97;4992257;28;20058;-85
2020/12/01 03:30:49;;;;;;;82.30;38.63;;;;;;;4.95;100.00;100758.72;4989611;28;20105;-86
2020/12/01 03:33:16;;;;;;;78.97;38.75;;;;;;;4.95;100.00;100759.56;4953937;28;20041;-85
2020/12/01 03:35:42;;;;;;;87.93;36.72;;;;;;;4.93;100.00;100758.84;4988833;28;20108;-86
2020/12/01 03:38:07;;;;;;;75.40;32.63;;;;;;;4.92;100.00;100758.97;4954159;28;20413;-85
2020/12/01 03:40:33;;;;;;;78.32;36.63;;;;;;;4.90;100.00;100755.59;4969943;28;20043;-86
2020/12/01 03:42:58;;;;;;;80.65;33.53;;;;;;;4.88;100.00;100747.75;4962558;28;20138;-85
2020/12/01 03:45:24;;;;;;;87.80;37.85;;;;;;;4.88;100.00;100746.91;4972369;28;20045;-85
2020/12/01 03:47:55;;;;;;;94.90;41.70;;;;;;;4.87;100.00;100750.53;4945927;28;20047;-86
2020/12/01 03:50:24;;;;;;;82.72;35.28;;;;;;;4.90;100.00;100750.28;4987868;28;20038;-86
2020/12/01 03:52:50;;;;;;;83.22;35.05;;;;;;;4.90;100.00;100750.28;4992672;28;20046;-86
2020/12/01 03:55:17;;;;;;;85.18;36.17;;;;;;;4.88;100.00;100746.91;5000091;28;20035;-85
2020/12/01 03:57:43;;;;;;;77.47;33.75;;;;;;;4.90;100.00;100745.81;4992637;28;20077;-85
2020/12/01 04:00:20;;;;;;;96.63;40.05;;;;;;;4.89;100.00;100745.91;4991510;28;20070;-85
2020/12/01 04:02:45;;;;;;;105.35;44.40;;;;;;;4.88;100.00;100750.41;4988876;28;20512;-85
2020/12/01 04:05:13;;;;;;;94.47;35.85;;;;;;;4.90;100.00;100740.50;4987893;28;20035;-86
2020/12/01 04:07:38;;;;;;;91.75;35.67;;;;;;;4.91;100.00;100747.47;4989666;28;20077;-85
2020/12/01 04:10:07;;;;;;;93.55;36.30;;;;;;;4.92;100.00;100748.31;4991116;28;20065;-85
2020/12/01 04:12:33;;;;;;;89.93;35.35;;;;;;;4.94;100.00;100746.38;4989145;28;20046;-86
2020/12/01 04:15:00;;;;;;;102.57;39.92;;;;;;;4.94;100.00;100741.06;4990556;28;20448;-86
2020/12/01 04:17:26;;;;;;;110.18;45.50;;;;;;;4.93;100.00;100744.72;4978486;28;20539;-85
2020/12/01 04:19:52;;;;;;;99.22;37.78;;;;;;;4.93;100.00;100748.22;4991190;28;20038;-86
2020/12/01 04:22:18;;;;;;;108.63;43.03;;;;;;;4.92;100.00;100741.22;4989549;28;20038;-85
2020/12/01 04:24:43;;;;;;;118.00;46.42;;;;;;;4.90;100.00;100742.31;4984164;28;20138;-86
2020/12/01 04:27:10;;;;;;;104.40;41.05;;;;;;;4.89;100.00;100738.81;4989364;28;20038;-86
2020/12/01 04:29:36;;;;;;;108.85;41.20;;;;;;;4.90;100.00;100748.47;4989007;28;20050;-86
2020/12/01 04:32:02;;;;;;;101.32;39.35;;;;;;;4.91;100.00;100750.16;4988351;28;20046;-85
2020/12/01 04:34:27;;;;;;;120.15;46.13;;;;;;;4.93;100.00;100748.22;4986758;28;20061;-85
2020/12/01 04:36:53;;;;;;;98.30;39.40;;;;;;;4.93;100.00;100755.34;4990088;28;20046;-85
2020/12/01 04:39:18;;;;;;;117.65;40.67;;;;;;;4.92;100.00;100748.31;4973380;28;20505;-86
2020/12/01 04:41:44;;;;;;;105.20;39.08;;;;;;;4.90;100.00;100755.59;4990970;28;20521;-85
2020/12/01 04:44:29;;;;;;;126.57;46.13;;;;;;;4.89;100.00;100751.25;4988042;28;20046;-86
2020/12/01 04:46:57;;;;;;;122.85;49.60;;;;;;;4.88;100.00;100746.91;4987307;28;20038;-85
2020/12/01 04:49:34;;;;;;;131.23;45.20;;;;;;;4.89;100.00;100751.25;4969520;28;20046;-85
2020/12/01 04:52:02;;;;;;;121.15;44.83;;;;;;;4.87;100.00;100751.38;4985535;28;20046;-85
2020/12/01 04:55:02;;;;;;;115.53;42.57;;;;;;;4.88;100.00;100757.53;4986799;28;20047;-85
2020/12/01 04:57:45;;;;;;;125.00;42.97;;;;;;;4.88;100.00;100760.19;4983310;28;20035;-85
2020/12/01 05:00:30;;;;;;;90.55;31.90;;;;;;;4.90;100.00;100755.59;4987409;28;20518;-85
2020/12/01 05:03:07;;;;;;;95.50;36.75;;;;;;;4.88;100.00;100760.19;4985346;28;20137;-85
2020/12/01 05:08:32;;;;;;;95.60;31.92;;;;;;;4.91;100.00;100757.28;4986877;28;20030;-85
2020/12/01 05:11:29;;;;;;;106.18;39.42;;;;;;;4.92;100.00;100764.28;4988836;28;20039;-85
2020/12/01 05:14:21;;;;;;;89.13;31.30;;;;;;;4.92;100.00;100761.63;4973801;28;20100;-85
2020/12/01 05:17:11;;;;;;;90.72;30.58;;;;;;;4.91;100.00;100762.59;4999388;28;20051;-85
2020/12/01 05:19:46;;;;;;;96.68;35.08;;;;;;;4.90;100.00;100775.06;4984649;28;20082;-85
2020/12/01 05:22:15;;;;;;;90.75;32.47;;;;;;;4.93;100.00;100765.97;4988635;28;20512;-85
2020/12/01 05:24:44;;;;;;;100.97;37.85;;;;;;;4.94;100.00;100772.97;4983353;28;20113;-85
2020/12/01 05:27:32;;;;;;;87.32;31.40;;;;;;;4.96;100.00;100781.69;4985354;28;20182;-85
2020/12/01 05:30:06;;;;;;;88.45;32.63;;;;;;;4.95;100.00;100778.19;4992942;28;20049;-85
2020/12/01 05:32:56;;;;;;;76.90;27.70;;;;;;;4.99;100.00;100776.09;5005265;28;20549;-85
2020/12/01 05:35:28;;;;;;;85.72;29.48;;;;;;;5.02;100.00;100780.31;4984850;28;20046;-85
2020/12/01 05:37:57;;;;;;;74.78;26.23;;;;;;;5.05;100.00;100785.38;4986330;28;20034;-86
2020/12/01 05:40:23;;;;;;;71.78;26.33;;;;;;;5.06;100.00;100787.91;4990390;28;20116;-85
2020/12/01 05:42:49;;;;;;;76.60;29.10;;;;;;;5.07;100.00;100783.44;4988647;28;20043;-86
2020/12/01 05:45:23;;;;;;;65.00;24.20;;;;;;;5.09;100.00;100777.03;4991569;28;20065;-85
2020/12/01 05:47:55;;;;;;;75.15;28.45;;;;;;;5.10;100.00;100781.38;4985826;28;20050;-85
2020/12/01 05:50:24;;;;;;;73.72;28.98;;;;;;;5.11;100.00;100788.38;4991278;28;20042;-86
2020/12/01 05:53:11;;;;;;;64.82;25.83;;;;;;;5.12;100.00;100792.72;4992818;28;20042;-86
2020/12/01 05:55:37;;;;;;;68.28;25.77;;;;;;;5.13;100.00;100788.25;4976538;28;20085;-86
2020/12/01 05:58:08;;;;;;;68.60;28.35;;;;;;;5.13;100.00;100794.41;4976629;28;20505;-86
2020/12/01 06:00:37;;;;;;;67.78;23.05;;;;;;;5.14;100.00;100789.94;5003778;28;20125;-85
2020/12/01 06:03:18;;;;;;;61.63;22.60;;;;;;;5.15;100.00;100797.78;4990118;28;20078;-85
2020/12/01 06:05:57;;;;;;;64.88;23.00;;;;;;;5.16;100.00;100798.63;4997142;28;20043;-85
2020/12/01 06:08:28;;;;;;;62.47;25.98;;;;;;;5.17;100.00;100797.66;4970627;28;20053;-85
2020/12/01 06:11:21;;;;;;;61.83;24.58;;;;;;;5.17;100.00;100798.50;5004855;28;20042;-84
2020/12/01 06:13:47;;;;;;;63.10;22.92;;;;;;;5.17;100.00;100795.81;5005246;28;20066;-85
2020/12/01 06:16:22;;;;;;;62.42;23.60;;;;;;;5.19;100.00;100793.06;4998304;28;20121;-84
2020/12/01 06:18:53;;;;;;;66.85;24.90;;;;;;;5.20;100.00;100805.38;4975963;28;20042;-85
2020/12/01 06:21:39;;;;;;;65.82;23.63;;;;;;;5.22;100.00;100803.44;4990802;28;20501;-85
2020/12/01 06:24:34;;;;;;;70.47;28.30;;;;;;;5.19;100.00;100799.22;4984616;28;20125;-86
2020/12/01 06:27:11;;;;;;;62.97;24.92;;;;;;;5.18;100.00;100800.19;5002826;28;20370;-86
2020/12/01 06:29:54;;;;;;;67.43;27.27;;;;;;;5.19;100.00;100809.84;5000187;28;20043;-85
2020/12/01 06:32:40;;;;;;;77.82;27.13;;;;;;;5.19;100.00;100798.38;4983188;28;20034;-86
2020/12/01 06:35:42;;;;;;;78.78;26.42;;;;;;;5.22;100.00;100805.25;4967523;28;20042;-86
2020/12/01 06:38:40;;;;;;;65.68;26.08;;;;;;;5.20;100.00;100806.22;4965174;28;20101;-84
2020/12/01 06:41:14;;;;;;;64.22;22.88;;;;;;;5.23;100.00;100804.28;4967348;28;20510;-84
2020/12/01 06:43:45;;;;;;;63.60;21.23;;;;;;;5.23;100.00;100810.44;4963536;28;20082;-83
2020/12/01 06:46:47;;;;;;;68.15;22.98;;;;;;;5.26;100.00;100815.50;4954801;28;20050;-84
2020/12/01 06:49:21;;;;;;;59.42;22.10;;;;;;;5.27;100.00;100817.19;4966545;28;20035;-82
2020/12/01 06:51:49;;;;;;;58.90;20.52;;;;;;;5.29;100.00;100825.03;4972458;28;20045;-83
2020/12/01 06:54:16;;;;;;;62.65;20.25;;;;;;;5.31;100.00;100831.09;4955366;28;20050;-83
2020/12/01 06:56:53;;;;;;;55.65;18.35;;;;;;;5.33;100.00;100832.63;4934165;28;20042;-83
2020/12/01 06:59:18;;;;;;;49.78;14.70;;;;;;;5.35;100.00;100835.16;4942778;28;20044;-83
2020/12/01 07:01:43;;;;;;;45.35;15.98;;;;;;;5.35;100.00;100837.81;4918330;29;20131;-84
2020/12/01 07:04:24;;;;;;;47.75;15.48;;;;;;;5.36;100.00;100842.19;4916828;29;20040;-84
2020/12/01 07:06:54;;;;;;;51.40;19.13;;;;;;;5.36;100.00;100844.84;4956679;28;20045;-84
2020/12/01 07:09:46;;;;;;;52.55;15.43;;;;;;;5.38;100.00;100851.72;4992086;28;20034;-84
2020/12/01 07:12:15;;;;;;;61.42;25.85;;;;;;;5.38;100.00;100851.72;4992045;28;20045;-84
2020/12/01 07:14:43;;;;;;;;;;;;;;;5.40;100.00;100854.25;4985367;28;20412;-83
2020/12/01 07:17:28;;;;;;;50.40;16.27;;;;;;;5.36;100.00;100858.16;4988121;28;19914;-84
2020/12/01 07:19:58;;;;;;;49.00;18.65;;;;;;;5.37;100.00;100865.16;4986774;28;20046;-83
2020/12/01 07:22:47;;;;;;;52.70;18.17;;;;;;;5.40;100.00;100859.56;4992252;28;20097;-84
2020/12/01 07:25:18;;;;;;;45.03;14.85;;;;;;;5.42;100.00;100871.78;4977538;28;20035;-84
2020/12/01 07:28:26;;;;;;;47.90;17.45;;;;;;;5.45;100.00;100870.69;4984460;28;20041;-84
2020/12/01 07:30:59;;;;;;;41.38;12.68;;;;;;;5.46;100.00;100868.84;4997650;28;20050;-83
2020/12/01 07:33:29;;;;;;;50.50;14.55;;;;;;;5.49;100.00;100879.25;4991126;28;20045;-84
2020/12/01 07:36:17;;;;;;;40.72;16.13;;;;;;;5.48;100.00;100873.09;4992027;28;20046;-84
2020/12/01 07:38:47;;;;;;;38.15;16.17;;;;;;;5.48;100.00;100875.75;4981098;28;20038;-83
2020/12/01 07:41:22;;;;;;;40.72;15.75;;;;;;;5.49;100.00;100874.75;4986257;28;20046;-83
2020/12/01 07:44:00;;;;;;;41.00;16.23;;;;;;;5.51;100.00;100877.31;4991597;28;20405;-84
2020/12/01 07:46:25;;;;;;;36.97;14.98;;;;;;;5.53;100.00;100875.38;4991746;28;20034;-84
2020/12/01 07:48:58;;;;;;;39.45;15.50;;;;;;;5.53;100.00;100878.88;4987123;28;20048;-84
2020/12/01 07:51:26;;;;;;;41.10;15.20;;;;;;;5.55;100.00;100887.56;4987810;28;20071;-84
2020/12/01 07:53:52;;;;;;;43.13;14.75;;;;;;;5.58;100.00;100894.44;4990655;28;20042;-85
2020/12/01 07:56:20;;;;;;;38.25;13.50;;;;;;;5.59;100.00;100891.66;4991701;28;20064;-83
2020/12/01 07:59:09;;;;;;;50.25;17.48;;;;;;;5.63;100.00;100889.56;4991995;28;20046;-84
2020/12/01 08:01:35;;;;;;;45.97;17.80;;;;;;;5.66;100.00;100898.13;4988648;28;20195;-84
2020/12/01 08:04:30;;;;;;;49.90;19.15;;;;;;;5.69;100.00;100899.69;4989785;28;20050;-84
2020/12/01 08:07:03;;;;;;;43.72;15.98;;;;;;;5.71;100.00;100904.91;4966264;28;20133;-84
2020/12/01 08:09:30;;;;;;;54.15;19.83;;;;;;;5.72;100.00;100906.59;4990508;28;20034;-84
2020/12/01 08:12:01;;;;;;;50.35;18.33;;;;;;;5.75;100.00;100909.00;4989197;28;20042;-84
2020/12/01 08:14:26;;;;;;;49.22;19.25;;;;;;;5.76;100.00;100908.03;4988415;28;20518;-84
2020/12/01 08:17:03;;;;;;;42.42;18.52;;;;;;;5.81;100.00;100908.47;4972468;28;20113;-84
2020/12/01 08:19:31;;;;;;;53.63;21.00;;;;;;;5.81;100.00;100908.47;4991442;28;20089;-84
2020/12/01 08:21:57;;;;;;;45.63;19.65;;;;;;;5.83;100.00;100915.34;4990105;28;20096;-84
2020/12/01 08:24:25;;;;;;;51.92;20.35;;;;;;;5.84;100.00;100916.19;4989055;28;20404;-85
2020/12/01 08:27:12;;;;;;;46.47;19.52;;;;;;;5.86;100.00;100914.25;4987383;28;20039;-84
2020/12/01 08:29:39;;;;;;;43.55;18.17;;;;;;;5.84;100.00;100914.41;5002898;28;20042;-84
2020/12/01 08:32:21;;;;;;;37.72;16.40;;;;;;;5.84;100.00;100924.19;4988426;28;20038;-84
2020/12/01 08:34:54;;;;;;;44.78;16.52;;;;;;;5.87;100.00;100923.94;4988945;28;20038;-85
2020/12/01 08:37:37;;;;;;;40.38;18.67;;;;;;;5.90;100.00;100934.34;4985671;28;20405;-84
2020/12/01 08:40:32;;;;;;;42.83;19.17;;;;;;;5.91;100.00;100920.03;4988989;28;20050;-85
2020/12/01 08:43:14;;;;;;;36.38;17.35;;;;;;;5.95;100.00;100936.63;4992687;28;20049;-84
2020/12/01 08:45:47;;;;;;;44.28;17.27;;;;;;;5.98;100.00;100934.53;4987132;28;20092;-83
2020/12/01 08:48:38;;;;;;;41.88;17.17;;;;;;;6.02;100.00;100935.16;4988542;28;20042;-84
2020/12/01 08:51:17;;;;;;;46.72;18.15;;;;;;;6.06;100.00;100939.22;4986535;28;20050;-84
2020/12/01 08:54:07;;;;;;;43.47;16.63;;;;;;;6.07;100.00;100939.09;4999477;28;21377;-85
2020/12/01 08:56:39;;;;;;;45.22;16.42;;;;;;;6.10;100.00;100948.66;4988961;28;20049;-85
2020/12/01 08:59:11;;;;;;;44.35;16.80;;;;;;;6.15;100.00;100956.22;4986856;28;20038;-84
2020/12/01 09:01:42;;;;;;;40.53;17.02;;;;;;;6.18;100.00;100953.31;4986379;28;20050;-84
2020/12/01 09:04:23;;;;;;;48.35;17.55;;;;;;;6.21;100.00;100958.38;4986941;28;20505;-85
2020/12/01 09:06:51;;;;;;;38.83;16.73;;;;;;;6.24;100.00;100955.44;4989443;28;20461;-85
2020/12/01 09:09:22;;;;;;;43.33;17.85;;;;;;;6.27;100.00;100955.16;4991689;28;20126;-84
2020/12/01 09:12:08;;;;;;;40.42;17.30;;;;;;;6.29;100.00;100964.72;4987010;28;20497;-85
2020/12/01 09:17:53;;;;;;;44.80;19.58;;;;;;;6.38;100.00;100967.59;4968754;28;20045;-84
2020/12/01 09:20:53;;;;;;;49.10;17.92;;;;;;;6.41;100.00;100967.31;4958776;28;20106;-83
2020/12/01 09:23:25;;;;;;;39.30;17.17;;;;;;;6.45;100.00;100974.91;4983725;28;20050;-84
2020/12/01 09:25:53;;;;;;;45.55;18.42;;;;;;;6.50;100.00;100970.03;4986836;28;20145;-84
2020/12/01 09:28:22;;;;;;;36.70;16.42;;;;;;;6.53;100.00;100976.91;4985776;28;20049;-84
2020/12/01 09:30:48;;;;;;;39.05;17.63;;;;;;;6.56;100.00;100976.66;4986645;28;20038;-84
2020/12/01 09:33:19;;;;;;;34.83;15.45;;;;;;;6.60;100.00;100969.22;4987393;28;20051;-84
2020/12/01 09:35:44;;;;;;;33.88;14.23;;;;;;;6.63;100.00;100976.97;4980120;28;20042;-84
2020/12/01 09:38:10;;;;;;;29.80;14.60;;;;;;;6.62;100.00;100977.91;4986904;28;20042;-84
2020/12/01 09:40:37;;;;;;;28.88;13.85;;;;;;;6.67;100.00;100975.69;4986259;28;20115;-85
2020/12/01 09:43:11;;;;;;;36.45;13.98;;;;;;;6.67;100.00;100973.88;4986107;28;20050;-84
2020/12/01 09:45:39;;;;;;;33.55;13.15;;;;;;;6.72;100.00;100985.00;4970826;28;20100;-84
2020/12/01 09:48:08;;;;;;;26.25;12.60;;;;;;;6.75;100.00;100984.72;4997117;28;20034;-83
2020/12/01 09:50:36;;;;;;;24.48;11.90;;;;;;;6.80;100.00;100989.66;5005720;28;20088;-83
2020/12/01 10:11:34;;;;;;;15.60;8.13;;;;;;;7.04;100.00;100996.47;4988156;28;20965;-85
2020/12/01 10:15:26;;;;;;;12.75;8.10;;;;;;;7.05;100.00;100993.69;4989438;28;20305;-85
2020/12/01 10:19:54;;;;;;;11.35;6.15;;;;;;;7.10;100.00;100985.25;4988581;28;20053;-85
2020/12/01 10:35:58;;;;;;;12.40;6.03;;;;;;;7.14;100.00;100992.00;4991182;28;20045;-85
2020/12/01 10:38:23;;;;;;;15.95;7.82;;;;;;;7.15;100.00;100991.88;4972690;28;20129;-86
2020/12/01 10:40:49;;;;;;;14.48;8.23;;;;;;;7.16;100.00;100990.03;4988738;28;20530;-85
2020/12/01 10:43:14;;;;;;;17.67;8.35;;;;;;;7.19;100.00;100985.28;4986395;28;20130;-85
2020/12/01 10:45:40;;;;;;;17.15;8.25;;;;;;;7.20;100.00;100986.13;4990755;28;20034;-86
2020/12/01 10:48:05;;;;;;;16.63;6.70;;;;;;;7.21;100.00;100995.81;4997086;28;20050;-86
2020/12/01 10:50:31;;;;;;;17.92;7.78;;;;;;;7.22;100.00;100995.69;5010110;28;20042;-84
2020/12/01 10:52:57;;;;;;;14.35;6.18;;;;;;;7.21;100.00;100996.66;5005332;28;20056;-84
2020/12/01 10:55:29;;;;;;;12.70;5.88;;;;;;;7.24;100.00;100995.53;5003803;28;20106;-84
2020/12/01 10:57:55;;;;;;;10.77;5.32;;;;;;;7.22;100.00;101001.03;5000352;28;20043;-83
2020/12/01 11:00:24;;;;;;;10.20;4.40;;;;;;;7.23;100.00;101005.38;5004167;28;20113;-84
2020/12/01 11:02:50;;;;;;;9.85;4.90;;;;;;;7.26;100.00;101012.25;5007552;28;20077;-84
2020/12/01 11:05:35;;;;;;;11.75;4.85;;;;;;;7.29;100.00;101012.00;4998220;28;20038;-84
2020/12/01 11:08:00;;;;;;;10.32;4.80;;;;;;;7.30;100.00;100999.47;4986462;28;20125;-84
2020/12/01 11:10:27;;;;;;;13.02;5.57;;;;;;;7.35;100.00;101008.75;4987636;28;20134;-83
2020/12/01 11:12:52;;;;;;;10.82;4.88;;;;;;;7.37;100.00;101012.16;4985335;28;20050;-83
2020/12/01 11:15:18;;;;;;;13.82;6.47;;;;;;;7.42;100.00;101017.91;4952893;28;20064;-83
2020/12/01 11:17:44;;;;;;;11.50;5.40;;;;;;;7.46;100.00;101021.16;4985696;28;20046;-83
2020/12/01 11:20:11;;;;;;;14.55;8.73;;;;;;;7.46;100.00;101024.66;4985485;28;20050;-84
2020/12/01 11:22:37;;;;;;;11.85;6.32;;;;;;;7.45;100.00;101020.31;4986207;28;20041;-84
2020/12/01 11:25:03;;;;;;;13.63;7.10;;;;;;;7.50;100.00;101024.38;4990488;28;20065;-84
2020/12/01 11:27:28;;;;;;;12.02;5.68;;;;;;;7.53;100.00;101011.59;4990229;28;20456;-85
2020/12/01 11:29:53;;;;;;;11.57;5.70;;;;;;;7.54;100.00;101025.78;4985922;28;20046;-84
2020/12/01 11:32:19;;;;;;;11.82;5.20;;;;;;;7.57;100.00;101033.53;4991287;28;20043;-84
2020/12/01 11:34:51;;;;;;;10.25;5.35;;;;;;;7.58;100.00;101033.38;4989485;28;20129;-85
2020/12/01 11:37:17;;;;;;;15.40;6.95;;;;;;;7.60;100.00;101026.09;4989714;28;20049;-84
2020/12/01 11:39:42;;;;;;;13.77;5.78;;;;;;;7.62;100.00;101034.81;4985984;28;20039;-85
2020/12/01 11:42:08;;;;;;;12.63;5.40;;;;;;;7.64;100.00;101040.84;4985772;28;20104;-83
2020/12/01 11:44:33;;;;;;;16.02;8.57;;;;;;;7.64;100.00;101043.50;4989902;28;20057;-83
2020/12/01 11:46:59;;;;;;;16.50;9.60;;;;;;;7.64;100.00;101042.66;4990815;28;20127;-84
2020/12/01 11:49:25;;;;;;;17.67;8.82;;;;;;;7.60;100.00;101052.81;4985457;28;20050;-83
2020/12/01 11:51:50;;;;;;;17.05;7.03;;;;;;;7.57;100.00;101063.75;4985887;28;20060;-83
2020/12/01 11:54:16;;;;;;;17.00;7.40;;;;;;;7.54;100.00;101052.47;4980954;28;20043;-84
2020/12/01 11:56:42;;;;;;;17.10;9.10;;;;;;;7.52;100.00;101054.47;4984980;28;20039;-84
2020/12/01 11:59:08;;;;;;;18.50;7.88;;;;;;;7.53;100.00;101051.66;4979935;28;20035;-85
2020/12/01 12:01:36;;;;;;;23.40;10.05;;;;;;;7.56;100.00;101058.53;4987029;28;20057;-84
2020/12/01 12:04:03;;;;;;;15.45;7.30;;;;;;;7.58;100.00;101059.25;4982697;28;20053;-83
2020/12/01 12:06:29;;;;;;;18.83;8.05;;;;;;;7.60;100.00;101063.47;4968699;28;20046;-84
2020/12/01 12:08:54;;;;;;;18.77;9.82;;;;;;;7.63;100.00;101057.88;4987209;28;20046;-84